Terminal Aerodrome Forecast
Issued by NWS Sterling, VA

Current Version | Previous Version | Text Only | Print | Product List | Glossary Off
Versions: 1 2 3 4 5 6 7 8 9 10 11 12

000
FTUS41 KLWX 271100
TAFMRB
TAF
KMRB 271136Z 2712/2812 00000KT 5SM BR SKC
     FM271230 00000KT P6SM FEW050
     FM272100 23004KT P6SM VCTS BKN050CB
     FM280000 20004KT P6SM BKN050
     FM280600 33008KT P6SM SCT090=

USA.gov is the U.S. government's official web portal to all federal, state and local government web resources and services.